sensor_id;sensor_type;location;lat;lon;timestamp;pressure;altitude;pressure_sealevel;temperature;humidity
45357;BME280;31092;51.924;21.448;2023-10-08T00:00:46;98759.31;;;8.51;100.00
45357;BME280;31092;51.924;21.448;2023-10-08T00:03:15;98783.59;;;8.64;100.00
45357;BME280;31092;51.924;21.448;2023-10-08T00:05:46;98865.84;;;9.23;100.00
45357;BME280;31092;51.924;21.448;2023-10-08T00:08:12;98775.50;;;8.57;100.00
45357;BME280;31092;51.924;21.448;2023-10-08T00:10:40;98804.59;;;8.75;100.00
45357;BME280;31092;51.924;21.448;2023-10-08T00:13:14;98871.81;;;9.18;100.00
45357;BME280;31092;51.924;21.448;2023-10-08T00:15:43;98822.13;;;8.93;100.00
45357;BME280;31092;51.924;21.448;2023-10-08T00:18:21;98780.38;;;8.69;100.00
45357;BME280;31092;51.924;21.448;2023-10-08T00:20:48;98784.25;;;8.66;100.00
45357;BME280;31092;51.924;21.448;2023-10-08T00:23:23;98812.09;;;8.80;100.00
45357;BME280;31092;51.924;21.448;2023-10-08T00:25:55;98881.59;;;9.26;100.00
45357;BME280;31092;51.924;21.448;2023-10-08T00:28:21;98781.38;;;8.68;100.00
45357;BME280;31092;51.924;21.448;2023-10-08T00:30:47;98766.66;;;8.63;100.00
45357;BME280;31092;51.924;21.448;2023-10-08T00:33:13;98869.16;;;9.25;100.00
45357;BME280;31092;51.924;21.448;2023-10-08T00:35:40;98774.63;;;8.72;100.00
45357;BME280;31092;51.924;21.448;2023-10-08T00:38:09;98770.72;;;8.74;100.00
45357;BME280;31092;51.924;21.448;2023-10-08T00:40:48;98714.66;;;8.43;100.00
45357;BME280;31092;51.924;21.448;2023-10-08T00:43:35;98843.47;;;9.16;100.00
45357;BME280;31092;51.924;21.448;2023-10-08T00:46:04;98823.00;;;9.15;100.00
45357;BME280;31092;51.924;21.448;2023-10-08T00:48:34;98839.22;;;9.28;100.00
45357;BME280;31092;51.924;21.448;2023-10-08T00:51:02;98740.94;;;8.69;100.00
45357;BME280;31092;51.924;21.448;2023-10-08T00:53:55;98815.56;;;9.17;100.00
45357;BME280;31092;51.924;21.448;2023-10-08T00:56:31;98730.72;;;8.58;100.00
45357;BME280;31092;51.924;21.448;2023-10-08T00:59:25;98763.44;;;8.68;100.00
45357;BME280;31092;51.924;21.448;2023-10-08T01:01:52;98767.56;;;8.71;100.00
45357;BME280;31092;51.924;21.448;2023-10-08T01:04:23;98821.69;;;9.10;100.00
45357;BME280;31092;51.924;21.448;2023-10-08T01:06:52;98764.50;;;8.74;100.00
45357;BME280;31092;51.924;21.448;2023-10-08T01:09:24;98761.84;;;8.74;100.00
45357;BME280;31092;51.924;21.448;2023-10-08T01:12:20;98841.53;;;9.31;100.00
45357;BME280;31092;51.924;21.448;2023-10-08T01:14:46;98845.06;;;9.31;100.00
45357;BME280;31092;51.924;21.448;2023-10-08T01:17:14;98841.34;;;9.32;100.00
45357;BME280;31092;51.924;21.448;2023-10-08T01:19:48;98827.47;;;9.29;100.00
45357;BME280;31092;51.924;21.448;2023-10-08T01:22:20;98816.00;;;9.20;100.00
45357;BME280;31092;51.924;21.448;2023-10-08T01:24:50;98762.94;;;8.79;100.00
45357;BME280;31092;51.924;21.448;2023-10-08T01:27:19;98774.94;;;8.83;100.00
45357;BME280;31092;51.924;21.448;2023-10-08T01:29:53;98853.75;;;9.33;100.00
45357;BME280;31092;51.924;21.448;2023-10-08T01:32:19;98854.78;;;9.32;100.00
45357;BME280;31092;51.924;21.448;2023-10-08T01:34:46;98773.75;;;8.86;100.00
45357;BME280;31092;51.924;21.448;2023-10-08T01:37:16;98834.66;;;9.22;100.00
45357;BME280;31092;51.924;21.448;2023-10-08T01:39:46;98746.09;;;8.71;100.00
45357;BME280;31092;51.924;21.448;2023-10-08T01:42:15;98752.44;;;8.84;100.00
45357;BME280;31092;51.924;21.448;2023-10-08T01:44:47;98800.78;;;9.27;100.00
45357;BME280;31092;51.924;21.448;2023-10-08T01:47:13;98721.78;;;8.72;100.00
45357;BME280;31092;51.924;21.448;2023-10-08T01:49:39;98721.63;;;8.80;100.00
45357;BME280;31092;51.924;21.448;2023-10-08T01:52:06;98734.03;;;8.81;100.00
45357;BME280;31092;51.924;21.448;2023-10-08T01:54:38;98793.75;;;9.05;100.00
45357;BME280;31092;51.924;21.448;2023-10-08T01:57:04;98735.66;;;8.76;100.00
45357;BME280;31092;51.924;21.448;2023-10-08T01:59:31;98794.28;;;9.15;100.00
45357;BME280;31092;51.924;21.448;2023-10-08T02:01:57;98758.03;;;8.83;100.00
45357;BME280;31092;51.924;21.448;2023-10-08T02:04:23;98753.31;;;8.70;100.00
45357;BME280;31092;51.924;21.448;2023-10-08T02:06:48;98777.31;;;8.72;100.00
45357;BME280;31092;51.924;21.448;2023-10-08T02:09:14;98849.66;;;9.16;100.00
45357;BME280;31092;51.924;21.448;2023-10-08T02:11:47;98861.06;;;9.18;100.00
45357;BME280;31092;51.924;21.448;2023-10-08T02:14:19;98794.50;;;8.77;100.00
45357;BME280;31092;51.924;21.448;2023-10-08T02:16:45;98762.72;;;8.59;100.00
45357;BME280;31092;51.924;21.448;2023-10-08T02:19:11;98782.69;;;8.72;100.00
45357;BME280;31092;51.924;21.448;2023-10-08T02:21:37;98749.28;;;8.59;100.00
45357;BME280;31092;51.924;21.448;2023-10-08T02:24:06;98832.63;;;9.09;100.00
45357;BME280;31092;51.924;21.448;2023-10-08T02:26:32;98830.53;;;9.04;100.00
45357;BME280;31092;51.924;21.448;2023-10-08T02:29:00;98764.38;;;8.60;100.00
45357;BME280;31092;51.924;21.448;2023-10-08T02:31:26;98851.13;;;9.19;100.00
45357;BME280;31092;51.924;21.448;2023-10-08T02:33:53;98769.28;;;8.57;100.00
45357;BME280;31092;51.924;21.448;2023-10-08T02:36:19;98749.22;;;8.53;100.00
45357;BME280;31092;51.924;21.448;2023-10-08T02:38:45;98778.44;;;8.62;100.00
45357;BME280;31092;51.924;21.448;2023-10-08T02:41:16;98750.34;;;8.44;100.00
45357;BME280;31092;51.924;21.448;2023-10-08T02:43:42;98807.38;;;8.67;100.00
45357;BME280;31092;51.924;21.448;2023-10-08T02:46:07;98842.66;;;8.79;100.00
45357;BME280;31092;51.924;21.448;2023-10-08T02:48:35;98814.75;;;8.44;100.00
45357;BME280;31092;51.924;21.448;2023-10-08T02:51:01;98797.06;;;8.34;100.00
45357;BME280;31092;51.924;21.448;2023-10-08T02:53:33;98882.50;;;8.82;100.00
45357;BME280;31092;51.924;21.448;2023-10-08T02:55:58;98876.88;;;8.77;100.00
45357;BME280;31092;51.924;21.448;2023-10-08T02:58:24;98908.13;;;8.99;100.00
45357;BME280;31092;51.924;21.448;2023-10-08T03:00:52;98748.72;;;7.98;100.00
45357;BME280;31092;51.924;21.448;2023-10-08T03:03:18;98899.94;;;8.86;100.00
45357;BME280;31092;51.924;21.448;2023-10-08T03:05:48;98881.13;;;8.71;100.00
45357;BME280;31092;51.924;21.448;2023-10-08T03:08:15;98870.78;;;8.53;100.00
45357;BME280;31092;51.924;21.448;2023-10-08T03:10:54;98914.19;;;8.86;100.00
45357;BME280;31092;51.924;21.448;2023-10-08T03:13:28;98842.78;;;8.41;100.00
45357;BME280;31092;51.924;21.448;2023-10-08T03:15:54;98888.28;;;8.79;100.00
45357;BME280;31092;51.924;21.448;2023-10-08T03:18:24;98914.56;;;8.83;100.00
45357;BME280;31092;51.924;21.448;2023-10-08T03:20:49;98836.75;;;8.39;100.00
45357;BME280;31092;51.924;21.448;2023-10-08T03:23:16;98834.06;;;8.39;100.00
45357;BME280;31092;51.924;21.448;2023-10-08T03:25:53;98831.72;;;8.36;100.00
45357;BME280;31092;51.924;21.448;2023-10-08T03:28:26;98845.47;;;8.41;100.00
45357;BME280;31092;51.924;21.448;2023-10-08T03:30:56;98924.56;;;8.90;100.00
45357;BME280;31092;51.924;21.448;2023-10-08T03:33:35;98821.66;;;8.23;100.00
45357;BME280;31092;51.924;21.448;2023-10-08T03:36:03;98914.56;;;8.83;100.00
45357;BME280;31092;51.924;21.448;2023-10-08T03:38:59;98867.13;;;8.54;100.00
45357;BME280;31092;51.924;21.448;2023-10-08T03:41:34;98935.56;;;8.95;100.00
45357;BME280;31092;51.924;21.448;2023-10-08T03:44:05;98864.78;;;8.51;100.00
45357;BME280;31092;51.924;21.448;2023-10-08T03:46:37;98886.16;;;8.59;100.00
45357;BME280;31092;51.924;21.448;2023-10-08T03:49:11;98948.63;;;8.98;100.00
45357;BME280;31092;51.924;21.448;2023-10-08T03:51:43;98864.59;;;8.38;100.00
45357;BME280;31092;51.924;21.448;2023-10-08T03:54:09;98981.47;;;9.00;100.00
45357;BME280;31092;51.924;21.448;2023-10-08T03:56:34;98960.47;;;8.88;100.00
45357;BME280;31092;51.924;21.448;2023-10-08T03:59:05;98878.31;;;8.43;100.00
45357;BME280;31092;51.924;21.448;2023-10-08T04:01:41;98863.44;;;8.32;100.00
45357;BME280;31092;51.924;21.448;2023-10-08T04:04:07;98957.97;;;8.87;100.00
45357;BME280;31092;51.924;21.448;2023-10-08T04:06:40;98863.56;;;8.24;100.00
45357;BME280;31092;51.924;21.448;2023-10-08T04:09:15;98970.19;;;8.90;100.00
45357;BME280;31092;51.924;21.448;2023-10-08T04:11:51;98899.31;;;8.54;100.00
45357;BME280;31092;51.924;21.448;2023-10-08T04:14:19;98962.78;;;8.92;100.00
45357;BME280;31092;51.924;21.448;2023-10-08T04:16:46;98947.06;;;8.74;100.00
45357;BME280;31092;51.924;21.448;2023-10-08T04:19:19;98920.94;;;8.53;100.00
45357;BME280;31092;51.924;21.448;2023-10-08T04:21:46;98997.13;;;8.96;100.00
45357;BME280;31092;51.924;21.448;2023-10-08T04:24:20;98909.53;;;8.36;100.00
45357;BME280;31092;51.924;21.448;2023-10-08T04:26:46;99010.28;;;8.91;100.00
45357;BME280;31092;51.924;21.448;2023-10-08T04:29:11;98977.31;;;8.68;100.00
45357;BME280;31092;51.924;21.448;2023-10-08T04:31:41;98995.19;;;8.75;100.00
45357;BME280;31092;51.924;21.448;2023-10-08T04:34:12;98947.59;;;8.39;100.00
45357;BME280;31092;51.924;21.448;2023-10-08T04:36:48;98908.31;;;8.09;100.00
45357;BME280;31092;51.924;21.448;2023-10-08T04:39:23;98907.38;;;8.02;100.00
45357;BME280;31092;51.924;21.448;2023-10-08T04:41:52;98975.75;;;8.35;100.00
45357;BME280;31092;51.924;21.448;2023-10-08T04:44:19;99018.84;;;8.57;100.00
45357;BME280;31092;51.924;21.448;2023-10-08T04:46:47;99016.91;;;8.51;100.00
45357;BME280;31092;51.924;21.448;2023-10-08T04:49:14;98961.47;;;8.05;100.00
45357;BME280;31092;51.924;21.448;2023-10-08T04:51:58;99050.97;;;8.50;100.00
45357;BME280;31092;51.924;21.448;2023-10-08T04:54:27;99006.16;;;8.13;100.00
45357;BME280;31092;51.924;21.448;2023-10-08T04:56:59;98962.97;;;7.85;100.00
45357;BME280;31092;51.924;21.448;2023-10-08T04:59:29;99070.59;;;8.51;100.00
45357;BME280;31092;51.924;21.448;2023-10-08T05:02:01;99001.44;;;8.15;100.00
45357;BME280;31092;51.924;21.448;2023-10-08T05:04:54;99075.88;;;8.59;100.00
45357;BME280;31092;51.924;21.448;2023-10-08T05:07:35;99057.94;;;8.36;100.00
45357;BME280;31092;51.924;21.448;2023-10-08T05:10:10;99089.53;;;8.49;100.00
45357;BME280;31092;51.924;21.448;2023-10-08T05:12:38;99026.88;;;7.96;100.00
45357;BME280;31092;51.924;21.448;2023-10-08T05:15:11;99087.13;;;8.31;100.00
45357;BME280;31092;51.924;21.448;2023-10-08T05:17:44;99015.28;;;7.81;100.00
45357;BME280;31092;51.924;21.448;2023-10-08T05:20:17;99088.75;;;8.18;100.00
45357;BME280;31092;51.924;21.448;2023-10-08T05:23:16;99098.50;;;8.10;100.00
45357;BME280;31092;51.924;21.448;2023-10-08T05:25:51;99109.91;;;8.12;100.00
45357;BME280;31092;51.924;21.448;2023-10-08T05:28:27;99109.84;;;7.98;100.00
45357;BME280;31092;51.924;21.448;2023-10-08T05:30:55;99120.03;;;8.02;100.00
45357;BME280;31092;51.924;21.448;2023-10-08T05:33:37;99039.88;;;7.53;100.00
45357;BME280;31092;51.924;21.448;2023-10-08T05:36:11;99046.75;;;7.56;100.00
45357;BME280;31092;51.924;21.448;2023-10-08T05:38:43;99049.22;;;7.57;100.00
45357;BME280;31092;51.924;21.448;2023-10-08T05:41:26;99073.81;;;7.69;100.00
45357;BME280;31092;51.924;21.448;2023-10-08T05:44:04;99152.50;;;8.07;100.00
45357;BME280;31092;51.924;21.448;2023-10-08T05:46:40;99153.84;;;8.11;100.00
45357;BME280;31092;51.924;21.448;2023-10-08T05:49:14;99096.72;;;7.72;100.00
45357;BME280;31092;51.924;21.448;2023-10-08T05:51:42;99165.22;;;8.13;100.00
45357;BME280;31092;51.924;21.448;2023-10-08T05:54:14;99223.31;;;8.29;100.00
45357;BME280;31092;51.924;21.448;2023-10-08T05:59:43;99218.84;;;8.13;100.00
45357;BME280;31092;51.924;21.448;2023-10-08T06:02:35;99259.84;;;8.30;100.00
45357;BME280;31092;51.924;21.448;2023-10-08T06:05:05;99278.13;;;8.27;100.00
45357;BME280;31092;51.924;21.448;2023-10-08T06:07:53;99210.59;;;7.84;100.00
45357;BME280;31092;51.924;21.448;2023-10-08T06:10:27;99303.47;;;8.24;100.00
45357;BME280;31092;51.924;21.448;2023-10-08T06:13:03;99371.84;;;8.28;100.00
45357;BME280;31092;51.924;21.448;2023-10-08T06:15:38;99399.84;;;8.34;100.00
45357;BME280;31092;51.924;21.448;2023-10-08T06:18:18;99330.41;;;7.75;100.00
45357;BME280;31092;51.924;21.448;2023-10-08T06:20:45;99372.09;;;7.86;100.00
45357;BME280;31092;51.924;21.448;2023-10-08T06:23:15;99365.59;;;7.72;100.00
45357;BME280;31092;51.924;21.448;2023-10-08T06:25:44;99429.91;;;8.05;100.00
45357;BME280;31092;51.924;21.448;2023-10-08T06:28:17;99453.88;;;8.06;100.00
45357;BME280;31092;51.924;21.448;2023-10-08T06:30:46;99528.66;;;8.42;100.00
45357;BME280;31092;51.924;21.448;2023-10-08T06:33:12;99558.69;;;8.37;100.00
45357;BME280;31092;51.924;21.448;2023-10-08T06:35:38;99571.91;;;8.31;100.00
45357;BME280;31092;51.924;21.448;2023-10-08T06:38:10;99609.81;;;8.52;100.00
45357;BME280;31092;51.924;21.448;2023-10-08T06:40:37;99618.72;;;8.53;100.00
45357;BME280;31092;51.924;21.448;2023-10-08T06:43:03;99628.63;;;8.44;100.00
45357;BME280;31092;51.924;21.448;2023-10-08T06:45:40;99593.84;;;8.18;100.00
45357;BME280;31092;51.924;21.448;2023-10-08T06:48:07;99597.53;;;8.17;100.00
45357;BME280;31092;51.924;21.448;2023-10-08T06:50:33;99612.47;;;8.20;100.00
45357;BME280;31092;51.924;21.448;2023-10-08T06:53:04;99620.69;;;8.26;100.00
45357;BME280;31092;51.924;21.448;2023-10-08T06:55:33;99682.16;;;8.62;100.00
45357;BME280;31092;51.924;21.448;2023-10-08T06:58:01;99723.44;;;8.94;100.00
45357;BME280;31092;51.924;21.448;2023-10-08T07:00:32;99716.06;;;8.79;100.00
45357;BME280;31092;51.924;21.448;2023-10-08T07:03:06;99783.19;;;8.96;100.00
45357;BME280;31092;51.924;21.448;2023-10-08T07:05:50;99789.25;;;8.98;100.00
45357;BME280;31092;51.924;21.448;2023-10-08T07:08:32;99765.38;;;8.78;100.00
45357;BME280;31092;51.924;21.448;2023-10-08T07:11:01;99732.63;;;8.67;100.00
45357;BME280;31092;51.924;21.448;2023-10-08T07:13:32;99735.97;;;8.60;100.00
45357;BME280;31092;51.924;21.448;2023-10-08T07:15:58;99833.41;;;9.11;100.00
45357;BME280;31092;51.924;21.448;2023-10-08T07:18:25;99856.59;;;9.13;100.00
45357;BME280;31092;51.924;21.448;2023-10-08T07:21:01;99906.09;;;9.02;100.00
45357;BME280;31092;51.924;21.448;2023-10-08T07:23:37;99926.25;;;9.06;100.00
45357;BME280;31092;51.924;21.448;2023-10-08T07:26:19;99862.63;;;8.48;100.00
45357;BME280;31092;51.924;21.448;2023-10-08T07:29:05;99927.06;;;8.98;100.00
45357;BME280;31092;51.924;21.448;2023-10-08T07:31:38;99945.25;;;9.21;100.00
45357;BME280;31092;51.924;21.448;2023-10-08T07:34:07;99947.75;;;9.14;100.00
45357;BME280;31092;51.924;21.448;2023-10-08T07:36:51;99865.69;;;8.61;100.00
45357;BME280;31092;51.924;21.448;2023-10-08T07:39:18;99896.09;;;8.70;100.00
45357;BME280;31092;51.924;21.448;2023-10-08T07:41:50;99960.41;;;9.22;100.00
45357;BME280;31092;51.924;21.448;2023-10-08T07:44:16;99977.19;;;9.32;100.00
45357;BME280;31092;51.924;21.448;2023-10-08T07:46:47;99909.44;;;8.96;100.00
45357;BME280;31092;51.924;21.448;2023-10-08T07:49:13;99963.28;;;9.45;100.00
45357;BME280;31092;51.924;21.448;2023-10-08T07:51:40;99897.56;;;9.23;100.00
45357;BME280;31092;51.924;21.448;2023-10-08T07:54:06;99977.28;;;9.73;100.00
45357;BME280;31092;51.924;21.448;2023-10-08T07:56:35;99986.53;;;9.95;100.00
45357;BME280;31092;51.924;21.448;2023-10-08T07:59:03;99905.00;;;9.29;100.00
45357;BME280;31092;51.924;21.448;2023-10-08T08:01:34;99984.28;;;9.41;100.00
45357;BME280;31092;51.924;21.448;2023-10-08T08:04:00;100030.47;;;9.37;100.00
45357;BME280;31092;51.924;21.448;2023-10-08T08:06:25;100073.50;;;9.37;100.00
45357;BME280;31092;51.924;21.448;2023-10-08T08:08:51;99963.22;;;8.70;100.00
45357;BME280;31092;51.924;21.448;2023-10-08T08:11:17;99973.00;;;8.79;100.00
45357;BME280;31092;51.924;21.448;2023-10-08T08:13:43;100038.78;;;9.17;100.00
45357;BME280;31092;51.924;21.448;2023-10-08T08:16:13;100035.75;;;9.12;100.00
45357;BME280;31092;51.924;21.448;2023-10-08T08:18:49;100034.09;;;9.11;100.00
45357;BME280;31092;51.924;21.448;2023-10-08T08:21:28;100038.78;;;9.17;100.00
45357;BME280;31092;51.924;21.448;2023-10-08T08:23:56;100040.50;;;9.18;100.00
45357;BME280;31092;51.924;21.448;2023-10-08T08:26:30;100036.81;;;9.27;100.00
45357;BME280;31092;51.924;21.448;2023-10-08T08:29:02;100034.19;;;9.44;100.00
45357;BME280;31092;51.924;21.448;2023-10-08T08:31:29;100025.34;;;9.68;100.00
45357;BME280;31092;51.924;21.448;2023-10-08T08:33:58;100135.09;;;10.31;100.00
45357;BME280;31092;51.924;21.448;2023-10-08T08:36:29;100051.59;;;9.82;100.00
45357;BME280;31092;51.924;21.448;2023-10-08T08:38:56;100217.41;;;10.34;100.00
45357;BME280;31092;51.924;21.448;2023-10-08T08:41:22;100185.38;;;10.14;100.00
45357;BME280;31092;51.924;21.448;2023-10-08T08:43:52;100121.75;;;9.97;100.00
45357;BME280;31092;51.924;21.448;2023-10-08T08:46:32;100188.28;;;10.45;100.00
45357;BME280;31092;51.924;21.448;2023-10-08T08:49:05;100186.38;;;10.21;100.00
45357;BME280;31092;51.924;21.448;2023-10-08T08:51:34;100194.69;;;10.36;100.00
45357;BME280;31092;51.924;21.448;2023-10-08T08:54:01;100104.13;;;10.11;100.00
45357;BME280;31092;51.924;21.448;2023-10-08T08:56:35;100117.28;;;10.30;100.00
45357;BME280;31092;51.924;21.448;2023-10-08T08:59:04;100115.91;;;10.18;100.00
45357;BME280;31092;51.924;21.448;2023-10-08T09:01:30;100231.78;;;10.83;100.00
45357;BME280;31092;51.924;21.448;2023-10-08T09:04:01;100218.47;;;10.98;100.00
45357;BME280;31092;51.924;21.448;2023-10-08T09:06:30;100185.28;;;10.73;100.00
45357;BME280;31092;51.924;21.448;2023-10-08T09:08:59;100208.19;;;11.01;100.00
45357;BME280;31092;51.924;21.448;2023-10-08T09:11:42;100217.63;;;10.89;100.00
45357;BME280;31092;51.924;21.448;2023-10-08T09:14:08;100163.91;;;9.88;100.00
45357;BME280;31092;51.924;21.448;2023-10-08T09:16:36;100260.66;;;10.32;100.00
45357;BME280;31092;51.924;21.448;2023-10-08T09:19:02;100199.06;;;9.87;100.00
45357;BME280;31092;51.924;21.448;2023-10-08T09:21:28;100201.16;;;10.09;100.00
45357;BME280;31092;51.924;21.448;2023-10-08T09:23:57;100160.78;;;10.09;100.00
45357;BME280;31092;51.924;21.448;2023-10-08T09:26:24;100227.84;;;10.37;100.00
45357;BME280;31092;51.924;21.448;2023-10-08T09:28:50;100201.75;;;10.37;100.00
45357;BME280;31092;51.924;21.448;2023-10-08T09:31:17;100214.94;;;10.73;100.00
45357;BME280;31092;51.924;21.448;2023-10-08T09:33:44;100156.19;;;10.68;100.00
45357;BME280;31092;51.924;21.448;2023-10-08T09:36:18;100162.56;;;10.59;100.00
45357;BME280;31092;51.924;21.448;2023-10-08T09:38:46;100210.38;;;11.06;100.00
45357;BME280;31092;51.924;21.448;2023-10-08T09:41:15;100216.06;;;11.27;100.00
45357;BME280;31092;51.924;21.448;2023-10-08T09:43:41;100165.22;;;11.08;100.00
45357;BME280;31092;51.924;21.448;2023-10-08T09:46:19;100163.53;;;11.15;100.00
45357;BME280;31092;51.924;21.448;2023-10-08T09:48:51;100261.81;;;11.77;100.00
45357;BME280;31092;51.924;21.448;2023-10-08T09:51:20;100254.28;;;11.56;100.00
45357;BME280;31092;51.924;21.448;2023-10-08T09:54:11;100301.00;;;11.48;100.00
45357;BME280;31092;51.924;21.448;2023-10-08T09:56:41;100221.66;;;10.61;100.00
45357;BME280;31092;51.924;21.448;2023-10-08T09:59:09;100200.59;;;10.48;100.00
45357;BME280;31092;51.924;21.448;2023-10-08T10:01:37;100246.22;;;10.74;100.00
45357;BME280;31092;51.924;21.448;2023-10-08T10:04:10;100301.00;;;10.91;100.00
45357;BME280;31092;51.924;21.448;2023-10-08T10:06:36;100325.94;;;11.01;100.00
45357;BME280;31092;51.924;21.448;2023-10-08T10:09:02;100254.81;;;10.69;100.00
45357;BME280;31092;51.924;21.448;2023-10-08T10:11:33;100285.84;;;11.31;100.00
45357;BME280;31092;51.924;21.448;2023-10-08T10:14:00;100183.78;;;11.03;100.00
45357;BME280;31092;51.924;21.448;2023-10-08T10:16:26;100301.81;;;11.73;100.00
45357;BME280;31092;51.924;21.448;2023-10-08T10:18:57;100257.03;;;11.39;100.00
45357;BME280;31092;51.924;21.448;2023-10-08T10:21:29;100209.56;;;10.89;100.00
45357;BME280;31092;51.924;21.448;2023-10-08T10:23:56;100261.41;;;11.32;100.00
45357;BME280;31092;51.924;21.448;2023-10-08T10:26:26;100271.44;;;11.95;100.00
45357;BME280;31092;51.924;21.448;2023-10-08T10:31:35;100224.56;;;11.72;100.00
45357;BME280;31092;51.924;21.448;2023-10-08T10:34:11;100287.50;;;12.28;100.00
45357;BME280;31092;51.924;21.448;2023-10-08T10:36:40;100215.19;;;11.51;100.00
45357;BME280;31092;51.924;21.448;2023-10-08T10:39:12;100254.84;;;12.07;100.00
45357;BME280;31092;51.924;21.448;2023-10-08T10:41:52;100259.50;;;12.21;100.00
45357;BME280;31092;51.924;21.448;2023-10-08T10:44:25;100251.72;;;11.87;100.00
45357;BME280;31092;51.924;21.448;2023-10-08T10:46:51;100213.97;;;11.70;100.00
45357;BME280;31092;51.924;21.448;2023-10-08T10:49:20;100181.09;;;11.59;100.00
45357;BME280;31092;51.924;21.448;2023-10-08T10:52:10;100292.56;;;12.31;100.00
45357;BME280;31092;51.924;21.448;2023-10-08T10:54:44;100196.94;;;11.62;100.00
45357;BME280;31092;51.924;21.448;2023-10-08T10:57:25;100184.16;;;11.56;100.00
45357;BME280;31092;51.924;21.448;2023-10-08T11:00:03;100315.13;;;11.91;100.00
45357;BME280;31092;51.924;21.448;2023-10-08T11:02:52;100218.63;;;11.21;100.00
45357;BME280;31092;51.924;21.448;2023-10-08T11:05:27;100276.88;;;11.63;100.00
45357;BME280;31092;51.924;21.448;2023-10-08T11:07:57;100300.63;;;11.84;100.00
45357;BME280;31092;51.924;21.448;2023-10-08T11:10:37;100221.28;;;11.37;100.00
45357;BME280;31092;51.924;21.448;2023-10-08T11:13:06;100235.94;;;11.43;100.00
45357;BME280;31092;51.924;21.448;2023-10-08T11:15:46;100225.53;;;11.32;100.00
45357;BME280;31092;51.924;21.448;2023-10-08T11:18:22;100302.47;;;11.91;100.00
45357;BME280;31092;51.924;21.448;2023-10-08T11:20:50;100312.03;;;12.02;100.00
45357;BME280;31092;51.924;21.448;2023-10-08T11:23:43;100236.44;;;11.46;100.00
45357;BME280;31092;51.924;21.448;2023-10-08T11:26:12;100314.97;;;11.84;100.00
45357;BME280;31092;51.924;21.448;2023-10-08T11:28:40;100257.53;;;11.35;100.00
45357;BME280;31092;51.924;21.448;2023-10-08T11:31:10;100321.53;;;11.73;100.00
45357;BME280;31092;51.924;21.448;2023-10-08T11:33:38;100368.94;;;11.84;100.00
45357;BME280;31092;51.924;21.448;2023-10-08T11:36:05;100388.50;;;11.62;100.00
45357;BME280;31092;51.924;21.448;2023-10-08T11:38:53;100393.91;;;11.54;100.00
45357;BME280;31092;51.924;21.448;2023-10-08T11:41:26;100389.50;;;11.61;100.00
45357;BME280;31092;51.924;21.448;2023-10-08T11:43:57;100281.97;;;11.17;100.00
45357;BME280;31092;51.924;21.448;2023-10-08T11:46:24;100400.66;;;11.90;100.00
45357;BME280;31092;51.924;21.448;2023-10-08T11:48:58;100329.50;;;11.34;100.00
45357;BME280;31092;51.924;21.448;2023-10-08T11:51:30;100336.22;;;11.30;100.00
45357;BME280;31092;51.924;21.448;2023-10-08T11:53:55;100335.41;;;11.21;100.00
45357;BME280;31092;51.924;21.448;2023-10-08T11:56:21;100460.81;;;11.66;100.00
45357;BME280;31092;51.924;21.448;2023-10-08T11:58:48;100425.06;;;11.32;100.00
45357;BME280;31092;51.924;21.448;2023-10-08T12:01:15;100384.06;;;11.03;100.00
45357;BME280;31092;51.924;21.448;2023-10-08T12:03:43;100401.41;;;11.09;100.00
45357;BME280;31092;51.924;21.448;2023-10-08T12:06:13;100440.72;;;11.28;100.00
45357;BME280;31092;51.924;21.448;2023-10-08T12:08:45;100384.91;;;11.12;100.00
45357;BME280;31092;51.924;21.448;2023-10-08T12:11:14;100367.22;;;11.10;100.00
45357;BME280;31092;51.924;21.448;2023-10-08T12:13:43;100470.81;;;11.82;100.00
45357;BME280;31092;51.924;21.448;2023-10-08T12:16:14;100404.88;;;11.60;100.00
45357;BME280;31092;51.924;21.448;2023-10-08T12:18:49;100477.09;;;11.99;100.00
45357;BME280;31092;51.924;21.448;2023-10-08T12:21:27;100395.88;;;11.27;100.00
45357;BME280;31092;51.924;21.448;2023-10-08T12:24:00;100408.66;;;11.00;100.00
45357;BME280;31092;51.924;21.448;2023-10-08T12:26:30;100438.41;;;10.83;100.00
45357;BME280;31092;51.924;21.448;2023-10-08T12:28:56;100408.56;;;10.68;100.00
45357;BME280;31092;51.924;21.448;2023-10-08T12:31:22;100416.34;;;10.79;100.00
45357;BME280;31092;51.924;21.448;2023-10-08T12:33:52;100442.13;;;10.90;100.00
45357;BME280;31092;51.924;21.448;2023-10-08T12:36:19;100495.97;;;11.16;100.00
45357;BME280;31092;51.924;21.448;2023-10-08T12:38:48;100413.72;;;10.53;100.00
45357;BME280;31092;51.924;21.448;2023-10-08T12:41:14;100529.88;;;11.35;99.73
45357;BME280;31092;51.924;21.448;2023-10-08T12:43:43;100442.69;;;11.10;100.00
45357;BME280;31092;51.924;21.448;2023-10-08T12:46:11;100508.22;;;11.69;100.00
45357;BME280;31092;51.924;21.448;2023-10-08T12:48:46;100448.66;;;11.38;100.00
45357;BME280;31092;51.924;21.448;2023-10-08T12:51:18;100529.81;;;11.61;100.00
45357;BME280;31092;51.924;21.448;2023-10-08T12:53:46;100475.38;;;11.07;100.00
45357;BME280;31092;51.924;21.448;2023-10-08T12:56:25;100448.78;;;10.69;100.00
45357;BME280;31092;51.924;21.448;2023-10-08T12:59:00;100469.22;;;10.88;100.00
45357;BME280;31092;51.924;21.448;2023-10-08T13:01:29;100486.72;;;11.26;100.00
45357;BME280;31092;51.924;21.448;2023-10-08T13:03:55;100534.38;;;11.77;100.00
45357;BME280;31092;51.924;21.448;2023-10-08T13:06:27;100502.81;;;11.61;98.09
45357;BME280;31092;51.924;21.448;2023-10-08T13:08:57;100483.44;;;11.57;97.52